Time;durP1;ratioP1;P1;durP2;ratioP2;P2;SDS_P1;SDS_P2;PMS_P1;PMS_P2;Temp;Humidity;BMP_temperature;BMP_pressure;BME280_temperature;BME280_humidity;BME280_pressure;Samples;Min_cycle;Max_cycle;Signal;HPM_P1;HPM_P2
2023/04/26 00:01:59;;;;;;;8.00;2.40;;;8.10;69.80;;;11.01;49.21;101533.25;5035703;28;20214;-59
2023/04/26 00:04:27;;;;;;;8.40;3.03;;;8.10;69.90;;;11.02;49.16;101534.09;5034751;28;20226;-60
2023/04/26 00:06:55;;;;;;;6.63;2.83;;;8.20;69.90;;;11.04;49.16;101529.47;5035237;28;20195;-59
2023/04/26 00:09:22;;;;;;;6.70;2.53;;;8.10;69.70;;;11.05;48.87;101533.78;5035872;28;20294;-63
2023/04/26 00:11:50;;;;;;;6.47;2.67;;;8.20;69.80;;;11.06;49.68;101545.94;5034517;28;20271;-60
2023/04/26 00:14:17;;;;;;;6.17;2.80;;;8.20;69.70;;;11.06;48.87;101535.41;5035220;28;20222;-61
2023/04/26 00:16:44;;;;;;;9.20;2.30;;;8.20;69.70;;;11.06;48.92;101540.69;5035304;28;20191;-60
2023/04/26 00:19:11;;;;;;;6.77;2.90;;;8.20;69.80;;;11.07;49.17;101544.97;5035648;28;20198;-60
2023/04/26 00:21:38;;;;;;;6.93;2.30;;;8.20;69.80;;;11.03;49.12;101547.09;5035263;28;20194;-60
2023/04/26 00:24:06;;;;;;;6.27;2.70;;;8.20;69.60;;;10.99;49.31;101539.66;5034708;28;20218;-59
2023/04/26 00:26:34;;;;;;;6.07;2.23;;;8.20;69.70;;;10.94;49.67;101547.19;5036274;28;20273;-61
2023/04/26 00:29:03;;;;;;;4.83;2.87;;;8.10;69.50;;;10.88;49.36;101544.25;5034433;28;20194;-59
2023/04/26 00:31:30;;;;;;;6.73;2.97;;;8.10;70.00;;;10.85;49.63;101549.81;5035363;28;20275;-60
2023/04/26 00:33:57;;;;;;;5.77;2.43;;;8.10;69.90;;;10.82;49.27;101550.13;5034531;28;20195;-59
2023/04/26 00:36:25;;;;;;;8.17;2.77;;;8.00;70.00;;;10.80;49.43;101548.63;5034954;28;20187;-61
2023/04/26 00:38:52;;;;;;;5.63;3.13;;;8.00;70.00;;;10.77;49.72;101546.28;5035041;28;20543;-61
2023/04/26 00:41:19;;;;;;;6.03;3.10;;;8.00;70.10;;;10.72;49.77;101552.03;5035172;28;20237;-59
2023/04/26 00:43:46;;;;;;;8.87;2.90;;;8.00;70.00;;;10.69;49.84;101533.94;5034051;28;20267;-60
2023/04/26 00:46:14;;;;;;;4.30;2.77;;;7.90;70.00;;;10.66;49.84;101542.13;5034863;28;20186;-59
2023/04/26 00:48:42;;;;;;;8.63;3.33;;;7.90;70.20;;;10.63;50.08;101539.78;5034459;28;20198;-61
2023/04/26 00:51:09;;;;;;;6.60;2.93;;;7.90;70.50;;;10.61;49.79;101539.13;5034732;28;20202;-60
2023/04/26 00:53:36;;;;;;;7.73;3.27;;;7.90;70.50;;;10.57;49.93;101540.44;5033757;28;20191;-58
2023/04/26 00:56:07;;;;;;;6.53;2.50;;;7.80;70.20;;;10.55;49.80;101541.56;5034563;28;20219;-58
2023/04/26 00:58:36;;;;;;;7.83;3.17;;;7.80;70.80;;;10.51;49.97;101546.28;5034698;28;20545;-61
2023/04/26 01:01:03;;;;;;;7.67;2.93;;;7.80;70.80;;;10.49;50.19;101548.25;5034583;28;20544;-58
2023/04/26 01:03:31;;;;;;;10.37;2.80;;;7.70;71.00;;;10.48;49.93;101546.63;5034218;28;20257;-58
2023/04/26 01:05:59;;;;;;;4.63;2.57;;;7.70;70.90;;;10.47;50.31;101550.22;5034680;28;20265;-60
2023/04/26 01:08:26;;;;;;;7.97;3.07;;;7.70;71.10;;;10.44;50.21;101540.00;5034423;28;20636;-61
2023/04/26 01:10:53;;;;;;;6.40;2.90;;;7.70;71.10;;;10.43;50.31;101546.25;5034425;28;20264;-61
2023/04/26 01:13:20;;;;;;;8.33;3.13;;;7.70;71.30;;;10.42;50.67;101556.91;5033741;28;20199;-59
2023/04/26 01:15:48;;;;;;;8.00;3.17;;;7.60;71.10;;;10.41;50.32;101557.91;5034035;28;20252;-61
2023/04/26 01:18:15;;;;;;;8.57;2.70;;;7.60;71.20;;;10.41;50.02;101553.44;5034386;28;20273;-61
2023/04/26 01:20:45;;;;;;;6.77;3.53;;;7.60;71.20;;;10.43;50.05;101559.41;5034377;28;20194;-59
2023/04/26 01:23:13;;;;;;;6.73;3.07;;;7.60;71.50;;;10.42;50.27;101568.28;5034111;28;20229;-59
2023/04/26 01:25:40;;;;;;;7.90;2.80;;;7.60;71.40;;;10.43;50.31;101564.69;5034445;28;20206;-59
2023/04/26 01:28:07;;;;;;;5.40;2.70;;;7.60;71.70;;;10.47;50.15;101571.28;5032926;28;20736;-60
2023/04/26 01:30:34;;;;;;;8.50;3.20;;;7.60;71.80;;;10.47;50.01;101579.16;5034542;28;20198;-59
2023/04/26 01:33:01;;;;;;;5.77;3.27;;;7.60;71.60;;;10.48;50.73;101570.31;5033355;28;20244;-60
2023/04/26 01:35:28;;;;;;;4.80;2.83;;;7.60;71.70;;;10.50;50.11;101570.97;5033618;28;20217;-62
2023/04/26 01:37:55;;;;;;;4.07;2.80;;;7.60;71.90;;;10.52;50.27;101566.38;5033920;28;20670;-61
2023/04/26 01:40:23;;;;;;;6.57;2.83;;;7.60;71.90;;;10.55;50.20;101558.19;5032744;28;20202;-61
2023/04/26 01:42:50;;;;;;;5.13;2.63;;;7.60;71.90;;;10.59;50.64;101556.88;5033959;28;20316;-62
2023/04/26 01:45:17;;;;;;;5.43;3.20;;;7.70;72.00;;;10.63;50.68;101555.59;5033563;28;20241;-62
2023/04/26 01:47:44;;;;;;;5.37;2.27;;;7.70;71.90;;;10.68;50.22;101552.50;5032490;28;20194;-59
2023/04/26 01:50:11;;;;;;;8.90;2.83;;;7.70;72.80;;;10.72;50.32;101554.66;5033919;28;20257;-61
2023/04/26 01:52:38;;;;;;;3.60;2.47;;;7.70;72.20;;;10.76;50.50;101544.66;5034048;28;20202;-61
2023/04/26 01:55:07;;;;;;;2.73;2.53;;;7.80;72.20;;;10.82;50.22;101550.13;5032809;28;20659;-61
2023/04/26 01:57:35;;;;;;;3.23;2.77;;;7.90;72.10;;;10.86;49.99;101553.28;5029019;28;20658;-59
2023/04/26 02:00:03;;;;;;;7.13;3.10;;;7.90;71.80;;;10.85;49.82;101555.09;5026831;28;20199;-60
2023/04/26 02:02:30;;;;;;;5.67;2.67;;;7.90;71.70;;;10.85;50.11;101549.81;5033732;28;20205;-62
2023/04/26 02:04:57;;;;;;;4.93;3.10;;;7.90;71.50;;;10.86;49.85;101556.72;5015814;28;20261;-60
2023/04/26 02:07:24;;;;;;;7.70;3.10;;;7.90;71.40;;;10.84;49.65;101553.41;5032221;28;20191;-61
2023/04/26 02:09:51;;;;;;;6.50;3.17;;;7.90;71.50;;;10.86;50.37;101554.06;5033675;28;20197;-60
2023/04/26 02:12:18;;;;;;;5.03;2.47;;;7.90;71.60;;;10.87;49.92;101552.28;5034046;28;20190;-61
2023/04/26 02:14:46;;;;;;;4.10;3.10;;;8.00;72.00;;;10.91;50.31;101555.44;5032709;28;20268;-60
2023/04/26 02:17:13;;;;;;;6.13;3.00;;;8.00;71.80;;;10.89;50.27;101552.94;5033939;28;20264;-61
2023/04/26 02:19:40;;;;;;;10.70;2.80;;;8.00;71.60;;;10.83;49.69;101559.69;5033328;28;20190;-61
2023/04/26 02:22:07;;;;;;;4.83;3.10;;;8.00;71.40;;;10.79;50.35;101565.41;5034068;28;20194;-60
2023/04/26 02:24:54;;;;;;;4.67;3.03;;;7.90;71.40;;;10.72;49.80;101553.84;4956926;28;20228;-60
2023/04/26 02:27:21;;;;;;;7.03;3.07;;;7.90;71.20;;;10.64;49.98;101552.00;4972674;28;20212;-60
2023/04/26 02:29:50;;;;;;;5.50;3.00;;;7.90;71.20;;;10.56;49.86;101549.28;4972602;28;20359;-60
2023/04/26 02:32:17;;;;;;;7.07;3.17;;;7.80;71.30;;;10.50;50.37;101552.56;4972674;28;20217;-62
2023/04/26 02:34:44;;;;;;;4.43;2.97;;;7.70;72.10;;;10.46;50.21;101564.34;4955883;28;20223;-62
2023/04/26 02:37:11;;;;;;;7.07;3.63;;;7.70;71.50;;;10.40;50.52;101559.72;4972940;28;20211;-60
2023/04/26 02:39:38;;;;;;;6.43;3.30;;;7.60;71.70;;;10.35;50.60;101555.88;4972547;28;20291;-57
2023/04/26 02:42:08;;;;;;;5.40;3.07;;;7.60;71.60;;;10.30;51.04;101564.22;4972632;28;20222;-60
2023/04/26 02:44:36;;;;;;;6.03;2.80;;;7.60;72.10;;;10.26;50.88;101565.53;4973169;28;20705;-61
2023/04/26 02:47:04;;;;;;;5.10;2.97;;;7.50;72.40;;;10.23;50.75;101564.97;4976401;28;20666;-60
2023/04/26 02:49:31;;;;;;;5.33;3.53;;;7.50;72.40;;;10.17;50.88;101553.28;5015475;28;20260;-61
2023/04/26 02:51:58;;;;;;;4.87;3.53;;;7.40;72.20;;;10.13;51.15;101541.38;5037171;28;20667;-60
2023/04/26 02:54:25;;;;;;;8.33;3.03;;;7.40;72.40;;;10.10;51.05;101552.22;5036566;28;20211;-62
2023/04/26 02:56:54;;;;;;;5.03;2.90;;;7.40;72.60;;;10.07;51.12;101548.06;5036925;28;20198;-60
2023/04/26 02:59:21;;;;;;;5.67;3.00;;;7.30;73.00;;;10.07;51.81;101552.50;5037180;28;20225;-60
2023/04/26 03:01:47;;;;;;;6.43;3.50;;;7.30;73.10;;;10.06;51.39;101556.09;5035767;28;20203;-62
2023/04/26 03:04:16;;;;;;;9.50;3.60;;;7.30;72.90;;;10.04;51.27;101563.31;5036643;28;20260;-60
2023/04/26 03:06:43;;;;;;;5.87;3.17;;;7.30;72.90;;;10.01;51.18;101558.34;5037255;28;20246;-61
2023/04/26 03:09:10;;;;;;;4.53;3.27;;;7.20;73.10;;;10.00;51.11;101561.97;5036503;28;20206;-57
2023/04/26 03:11:37;;;;;;;7.80;3.73;;;7.20;73.20;;;9.98;51.58;101566.56;5035993;28;20202;-61
2023/04/26 03:14:04;;;;;;;5.77;3.53;;;7.20;73.50;;;9.99;51.36;101565.56;5035148;28;20236;-58
2023/04/26 03:16:41;;;;;;;4.67;3.03;;;7.20;73.60;;;9.97;51.78;101567.53;5036839;28;20257;-61
2023/04/26 03:19:08;;;;;;;5.03;3.17;;;7.20;73.80;;;10.02;51.52;101573.16;5034138;28;20664;-62
2023/04/26 03:21:37;;;;;;;6.73;3.10;;;7.20;74.00;;;10.05;51.47;101580.75;5034751;28;20201;-60
2023/04/26 03:24:05;;;;;;;8.73;3.47;;;7.10;73.70;;;10.05;51.71;101570.25;5037071;28;20730;-61
2023/04/26 03:26:32;;;;;;;6.33;3.10;;;7.20;73.90;;;10.10;51.71;101565.34;5036978;28;20650;-60
2023/04/26 03:28:59;;;;;;;9.87;4.30;;;7.20;74.40;;;10.15;51.70;101571.81;5036293;28;20209;-59
2023/04/26 03:31:26;;;;;;;7.23;3.63;;;7.20;74.70;;;10.19;51.99;101572.38;5036082;28;20290;-59
2023/04/26 03:33:53;;;;;;;5.37;3.07;;;7.20;74.20;;;10.19;52.36;101559.22;5035486;28;20281;-63
2023/04/26 03:36:20;;;;;;;4.80;3.33;;;7.20;74.00;;;10.18;51.92;101568.06;5035154;28;20678;-60
2023/04/26 03:38:48;;;;;;;8.70;3.63;;;7.30;74.00;;;10.19;51.91;101569.72;5035759;28;20191;-59
2023/04/26 03:41:15;;;;;;;7.90;3.50;;;7.30;73.90;;;10.23;52.10;101575.50;5034830;28;20206;-60
2023/04/26 03:43:42;;;;;;;6.03;2.90;;;7.30;74.10;;;10.24;52.04;101564.84;5035308;28;20217;-61
2023/04/26 03:46:09;;;;;;;6.93;3.20;;;7.30;74.00;;;10.22;51.84;101568.59;5035749;28;20212;-61
2023/04/26 03:48:36;;;;;;;7.03;3.73;;;7.30;73.90;;;10.17;51.88;101561.19;5035860;28;20222;-58
2023/04/26 03:51:03;;;;;;;6.43;3.13;;;7.30;73.70;;;10.15;51.66;101576.25;5034611;28;20212;-59
2023/04/26 03:53:30;;;;;;;8.20;3.10;;;7.30;73.70;;;10.14;51.61;101566.72;5035404;28;20226;-60
2023/04/26 03:55:59;;;;;;;11.90;5.20;;;7.30;73.70;;;10.13;52.20;101568.53;5035243;28;20217;-61
2023/04/26 03:58:26;;;;;;;8.10;3.57;;;7.30;74.10;;;10.14;51.85;101564.09;5035359;28;20218;-61
2023/04/26 04:00:56;;;;;;;7.30;3.23;;;7.30;74.00;;;10.11;51.91;101569.63;5035740;28;20574;-61
2023/04/26 04:03:23;;;;;;;6.20;2.83;;;7.30;73.70;;;10.07;51.54;101560.38;5030368;28;20222;-61
2023/04/26 04:05:50;;;;;;;7.20;3.30;;;7.30;73.40;;;10.04;52.13;101560.69;5014859;28;20292;-61
2023/04/26 04:08:17;;;;;;;4.27;3.63;;;7.20;73.70;;;10.02;52.01;101560.00;5034032;28;20190;-60
2023/04/26 04:10:44;;;;;;;9.20;3.97;;;7.20;73.80;;;9.99;52.14;101565.56;5049537;28;20195;-61
2023/04/26 04:13:13;;;;;;;4.80;3.40;;;7.20;73.90;;;9.97;51.75;101570.16;5034942;28;20197;-58
2023/04/26 04:15:40;;;;;;;8.00;3.57;;;7.20;73.80;;;9.91;52.11;101565.50;5034471;28;20222;-59
2023/04/26 04:18:07;;;;;;;5.43;3.40;;;7.10;73.60;;;9.86;51.73;101565.94;5035049;28;20659;-60
2023/04/26 04:20:34;;;;;;;11.17;4.97;;;7.10;73.80;;;9.83;52.34;101562.78;5035311;28;20217;-60
2023/04/26 04:23:03;;;;;;;9.00;3.83;;;7.10;74.20;;;9.80;52.34;101563.06;5034796;28;20191;-60
2023/04/26 04:25:30;;;;;;;9.33;3.67;;;7.00;74.30;;;9.79;51.95;101569.31;5035054;28;20215;-60
2023/04/26 04:27:57;;;;;;;10.87;3.70;;;7.00;74.20;;;9.78;52.03;101567.66;5034820;28;20192;-60
2023/04/26 04:30:25;;;;;;;6.43;3.60;;;7.00;74.40;;;9.80;52.01;101576.22;5035026;28;20225;-61
2023/04/26 04:32:52;;;;;;;6.57;4.43;;;7.00;74.60;;;9.79;52.18;101578.03;5034615;28;20186;-62
2023/04/26 04:35:21;;;;;;;5.30;3.53;;;7.00;74.50;;;9.79;52.46;101575.41;5034355;28;20220;-60
2023/04/26 04:37:49;;;;;;;9.17;3.43;;;7.00;74.60;;;9.84;52.11;101567.88;5034701;28;20195;-61
2023/04/26 04:40:16;;;;;;;7.57;4.20;;;7.00;74.70;;;9.90;52.18;101571.72;5035091;28;20198;-61
2023/04/26 04:42:43;;;;;;;9.03;3.50;;;6.90;74.60;;;9.97;51.86;101568.34;5042178;28;20201;-61
2023/04/26 04:45:10;;;;;;;6.83;3.50;;;7.00;74.90;;;10.03;52.32;101572.19;5034235;28;20600;-59
2023/04/26 04:47:39;;;;;;;6.17;3.03;;;7.00;74.80;;;10.08;52.20;101570.75;5034446;28;20249;-62
2023/04/26 04:50:07;;;;;;;9.93;3.50;;;7.10;74.80;;;10.16;51.62;101580.56;5033213;28;20207;-61
2023/04/26 04:52:34;;;;;;;6.63;3.60;;;7.20;74.80;;;10.15;51.84;101582.34;5035359;28;20686;-62
2023/04/26 04:55:02;;;;;;;7.23;3.10;;;7.20;74.20;;;10.18;51.96;101586.47;5034185;28;20214;-62
2023/04/26 04:57:31;;;;;;;9.53;3.63;;;7.20;74.10;;;10.18;51.81;101571.53;5034024;28;20281;-61
2023/04/26 05:00:01;;;;;;;4.63;3.10;;;7.30;74.10;;;10.17;52.01;101585.66;5034473;28;20209;-59
2023/04/26 05:02:29;;;;;;;6.63;3.13;;;7.30;73.70;;;10.14;51.32;101580.72;5034262;28;20710;-61
2023/04/26 05:04:58;;;;;;;9.17;3.30;;;7.30;73.50;;;10.12;51.49;101595.00;5033930;28;20229;-62
2023/04/26 05:07:25;;;;;;;7.57;3.03;;;7.30;73.50;;;10.06;51.41;101588.47;5032876;28;20226;-61
2023/04/26 05:09:55;;;;;;;9.53;3.60;;;7.30;73.30;;;10.05;51.50;101588.66;5032343;28;20570;-59
2023/04/26 05:12:22;;;;;;;6.80;3.50;;;7.30;73.50;;;10.07;51.52;101589.31;5032939;28;20205;-61
2023/04/26 05:14:49;;;;;;;6.53;3.93;;;7.20;73.60;;;10.11;52.13;101586.28;5032818;28;20206;-62
2023/04/26 05:17:16;;;;;;;5.47;2.67;;;7.20;73.80;;;10.16;51.73;101586.66;5049922;28;20199;-62
2023/04/26 05:19:43;;;;;;;7.20;2.83;;;7.20;73.80;;;10.23;51.84;101584.22;5034860;28;20706;-61
2023/04/26 05:22:19;;;;;;;5.37;2.63;;;7.30;73.90;;;10.32;51.38;101582.50;5035843;28;20245;-58
2023/04/26 05:24:47;;;;;;;5.93;2.70;;;7.30;73.90;;;10.42;51.14;101577.97;5046273;28;20228;-62
2023/04/26 05:27:14;;;;;;;5.37;2.37;;;7.40;73.80;;;10.52;51.09;101578.72;5013606;28;20195;-61
2023/04/26 05:29:41;;;;;;;7.13;2.60;;;7.50;73.60;;;10.61;51.01;101583.03;5014196;28;20199;-62
2023/04/26 05:32:08;;;;;;;2.77;2.33;;;7.50;73.50;;;10.75;50.70;101580.69;5032746;28;20694;-61
2023/04/26 05:34:36;;;;;;;5.13;2.97;;;7.60;73.70;;;10.94;50.79;101578.81;5033785;28;20218;-59
2023/04/26 05:37:03;;;;;;;4.33;2.50;;;7.70;73.50;;;11.09;50.91;101579.88;5049989;28;20190;-63
2023/04/26 05:39:31;;;;;;;4.53;2.87;;;7.90;73.30;;;11.24;50.45;101587.06;5034103;28;20543;-62
2023/04/26 05:41:58;;;;;;;5.73;2.60;;;8.00;72.90;;;11.37;49.48;101581.34;5033305;28;20685;-60
2023/04/26 05:44:25;;;;;;;5.23;2.40;;;8.10;72.30;;;11.46;49.87;101577.75;5032971;28;20222;-61
2023/04/26 05:46:52;;;;;;;4.70;2.47;;;8.20;72.00;;;11.56;49.58;101581.06;5034773;28;20219;-62
2023/04/26 05:49:19;;;;;;;4.97;2.57;;;8.40;71.70;;;11.66;48.81;101581.78;5032993;28;20209;-62
2023/04/26 05:51:46;;;;;;;4.73;2.33;;;8.40;71.00;;;11.74;48.75;101589.75;5034521;28;20659;-62
2023/04/26 05:54:13;;;;;;;6.60;4.27;;;8.60;70.50;;;11.84;48.70;101592.25;5032423;28;20590;-61
2023/04/26 05:56:42;;;;;;;4.67;2.63;;;8.70;70.40;;;11.94;48.62;101596.38;5034457;28;20544;-62
2023/04/26 05:59:09;;;;;;;6.63;3.00;;;8.80;70.00;;;12.02;48.12;101588.47;5034058;28;20226;-63
2023/04/26 06:01:36;;;;;;;4.77;2.70;;;8.80;69.50;;;12.14;47.88;101592.47;5033262;28;20304;-60
2023/04/26 06:04:04;;;;;;;5.33;2.90;;;9.00;69.50;;;12.24;47.38;101593.09;5033555;28;20225;-61
2023/04/26 06:06:31;;;;;;;9.53;2.27;;;9.10;68.70;;;12.31;47.12;101587.19;5034194;28;20189;-62
2023/04/26 06:08:58;;;;;;;7.60;3.23;;;9.10;68.40;;;12.33;46.86;101585.19;5033728;28;20201;-62
2023/04/26 06:11:25;;;;;;;6.23;3.03;;;9.20;67.80;;;12.38;46.92;101588.16;5033698;28;20266;-61
2023/04/26 06:13:54;;;;;;;6.70;2.50;;;9.20;68.00;;;12.46;46.65;101588.97;5031140;28;20278;-62
2023/04/26 06:16:22;;;;;;;4.57;2.40;;;9.30;67.90;;;12.50;46.46;101598.25;5033180;28;20222;-61
2023/04/26 06:18:49;;;;;;;7.83;2.63;;;9.40;67.60;;;12.51;46.52;101588.47;5033547;28;20191;-62
2023/04/26 06:21:16;;;;;;;4.57;2.33;;;9.40;67.30;;;12.51;46.77;101599.03;5038112;28;20201;-61
2023/04/26 06:23:43;;;;;;;5.57;2.73;;;9.40;67.20;;;12.47;46.56;101590.66;5036590;28;20194;-59
2023/04/26 06:26:10;;;;;;;4.40;2.20;;;9.50;66.90;;;12.43;46.67;101605.16;5038129;28;20552;-62
2023/04/26 06:28:37;;;;;;;5.30;2.17;;;9.40;66.70;;;12.36;46.72;101601.50;5038061;28;20205;-61
2023/04/26 06:31:07;;;;;;;5.53;2.73;;;9.40;66.60;;;12.32;46.74;101599.38;5037981;28;20190;-60
2023/04/26 06:33:34;;;;;;;6.10;2.80;;;9.40;66.40;;;12.27;46.71;101601.69;5034930;28;20682;-62
2023/04/26 06:36:01;;;;;;;6.60;2.47;;;9.40;66.60;;;12.24;46.66;101603.66;5037635;28;20734;-59
2023/04/26 06:38:28;;;;;;;4.40;2.47;;;9.30;66.50;;;12.24;46.38;101613.41;5038477;28;20193;-61
2023/04/26 06:40:56;;;;;;;6.33;2.13;;;9.30;66.40;;;12.17;46.42;101607.94;5037483;28;20215;-61
2023/04/26 06:43:23;;;;;;;4.80;2.63;;;9.30;66.20;;;12.13;46.66;101626.91;5052554;28;20293;-60
2023/04/26 06:45:50;;;;;;;5.27;2.90;;;9.30;66.20;;;12.08;46.62;101624.75;5036740;28;20224;-62
2023/04/26 06:48:18;;;;;;;8.43;2.70;;;9.20;66.20;;;12.08;46.43;101619.47;5052094;28;20198;-61
2023/04/26 06:50:45;;;;;;;4.17;2.47;;;9.30;66.70;;;12.10;47.13;101614.03;5036423;28;20669;-59
2023/04/26 06:53:13;;;;;;;6.97;2.77;;;9.20;66.70;;;12.17;46.87;101625.63;5036852;28;20194;-59
2023/04/26 06:55:40;;;;;;;3.93;2.47;;;9.30;66.90;;;12.18;46.27;101617.53;5035196;28;20210;-61
2023/04/26 06:58:07;;;;;;;6.60;3.23;;;9.30;66.40;;;12.13;46.64;101625.09;5036672;28;20221;-61
2023/04/26 07:00:34;;;;;;;8.13;3.17;;;9.30;66.10;;;12.08;46.66;101634.47;5049998;28;20671;-61
2023/04/26 07:03:01;;;;;;;4.97;2.20;;;9.30;66.10;;;12.06;46.38;101634.66;5037382;28;20647;-60
2023/04/26 07:05:30;;;;;;;6.07;2.47;;;9.30;66.10;;;12.11;47.07;101628.88;5036244;28;20601;-61
2023/04/26 07:07:57;;;;;;;6.03;2.63;;;9.30;66.40;;;12.18;46.97;101630.72;5035682;28;20202;-62
2023/04/26 07:10:26;;;;;;;8.23;3.53;;;9.30;66.60;;;12.30;46.78;101625.13;5034459;28;20213;-62
2023/04/26 07:12:53;;;;;;;4.93;2.80;;;9.40;66.40;;;12.39;46.33;101635.50;5035535;28;20269;-62
2023/04/26 07:15:20;;;;;;;6.57;2.57;;;9.40;66.20;;;12.49;46.43;101627.44;5034831;28;20219;-61
2023/04/26 07:17:47;;;;;;;4.60;2.93;;;9.50;66.00;;;12.57;45.54;101624.81;5034783;28;20278;-58
2023/04/26 07:20:18;;;;;;;7.83;3.10;;;9.50;65.40;;;12.62;45.85;101640.97;5036401;28;20240;-61
2023/04/26 07:22:46;;;;;;;6.67;3.50;;;9.60;64.70;;;12.66;44.93;101637.00;5035859;28;20679;-61
2023/04/26 07:25:14;;;;;;;8.27;3.10;;;9.70;64.20;;;12.69;44.66;101634.06;5035464;28;20581;-61
2023/04/26 07:27:41;;;;;;;6.90;2.90;;;9.70;63.70;;;12.75;44.93;101633.38;5034717;28;20217;-61
2023/04/26 07:30:09;;;;;;;5.30;2.50;;;9.80;63.90;;;12.85;45.27;101634.03;5036233;28;20333;-60
2023/04/26 07:32:36;;;;;;;3.07;2.30;;;9.90;63.80;;;13.02;44.54;101630.38;5017522;28;20679;-61
2023/04/26 07:35:14;;;;;;;7.20;2.83;;;10.00;62.40;;;13.49;44.01;101639.19;5017826;28;20733;-62
2023/04/26 07:37:42;;;;;;;5.70;2.70;;;10.10;62.60;;;14.11;42.65;101636.56;5024249;28;20623;-60
2023/04/26 07:40:13;;;;;;;6.00;2.57;;;10.40;61.40;;;14.82;41.54;101629.06;5035426;28;20742;-60
2023/04/26 07:42:40;;;;;;;3.43;2.40;;;10.80;60.40;;;15.58;39.92;101635.88;5035703;28;20278;-61
2023/04/26 07:45:09;;;;;;;8.20;3.10;;;11.30;59.20;;;16.37;39.33;101628.78;5035472;28;20214;-61
2023/04/26 07:47:36;;;;;;;7.20;2.50;;;11.90;58.40;;;17.27;37.37;101625.22;5035720;28;20186;-61
2023/04/26 07:50:05;;;;;;;6.40;2.53;;;12.50;57.50;;;17.79;36.18;101629.97;5029627;28;20190;-61
2023/04/26 07:52:32;;;;;;;3.17;2.03;;;13.00;55.30;;;18.20;34.87;101628.06;5034313;28;20207;-61
2023/04/26 07:54:59;;;;;;;6.50;2.70;;;13.50;53.30;;;18.89;34.61;101628.53;5034374;28;20210;-63
2023/04/26 07:57:28;;;;;;;7.30;2.60;;;14.00;53.70;;;19.51;33.62;101621.84;5048442;28;20195;-62
2023/04/26 07:59:55;;;;;;;7.27;3.00;;;14.50;52.50;;;19.69;32.55;101632.63;5028407;28;20191;-62
2023/04/26 08:02:22;;;;;;;6.00;2.20;;;14.80;50.20;;;19.56;32.37;101635.38;5033786;28;20278;-63
2023/04/26 08:05:09;;;;;;;5.47;2.17;;;15.10;49.30;;;19.14;32.46;101636.69;5031472;28;20226;-62
2023/04/26 08:07:37;;;;;;;8.73;2.80;;;15.10;47.70;;;18.76;32.28;101641.03;5048906;28;20739;-63
2023/04/26 08:10:05;;;;;;;4.07;2.43;;;14.90;46.90;;;18.40;32.68;101635.25;5033279;28;20218;-62
2023/04/26 08:12:34;;;;;;;3.97;2.23;;;14.80;47.10;;;17.99;33.04;101640.72;5032248;28;20203;-63
2023/04/26 08:15:03;;;;;;;5.60;2.53;;;14.60;47.40;;;17.56;33.54;101635.63;5025485;28;20214;-63
2023/04/26 08:17:31;;;;;;;3.27;2.20;;;14.40;47.50;;;17.27;34.19;101633.19;5034232;28;20242;-60
2023/04/26 08:19:58;;;;;;;4.93;2.50;;;14.10;48.30;;;17.14;34.64;101638.44;5046787;28;20277;-61
2023/04/26 08:22:26;;;;;;;4.80;2.03;;;13.90;49.00;;;17.07;34.78;101642.09;5034707;28;20211;-62
2023/04/26 08:24:54;;;;;;;6.03;2.37;;;13.80;49.30;;;17.04;34.78;101639.81;5031766;28;20297;-60
2023/04/26 08:27:22;;;;;;;5.23;2.73;;;13.70;49.00;;;17.09;34.76;101646.16;5031718;28;20233;-65
2023/04/26 08:29:50;;;;;;;11.33;2.37;;;13.60;49.10;;;17.13;34.34;101649.28;5030380;28;20335;-64
2023/04/26 08:32:17;;;;;;;4.73;2.30;;;13.60;49.20;;;17.10;34.63;101654.97;5026167;28;20209;-62
2023/04/26 08:34:44;;;;;;;6.90;2.53;;;13.60;49.30;;;17.14;34.51;101651.72;5022777;28;20702;-63
2023/04/26 08:37:12;;;;;;;8.23;2.63;;;13.60;49.40;;;17.27;34.55;101651.00;5032287;28;20202;-60
2023/04/26 08:39:40;;;;;;;3.83;2.23;;;13.60;49.40;;;17.46;34.00;101640.47;5029962;28;20548;-61
2023/04/26 08:42:15;;;;;;;6.40;2.37;;;13.70;48.40;;;18.17;33.18;101641.78;5030367;28;20218;-59
2023/04/26 08:44:44;;;;;;;4.70;2.33;;;13.80;48.10;;;19.13;32.30;101635.06;5029632;28;20279;-60
2023/04/26 08:47:17;;;;;;;5.63;2.10;;;14.20;48.00;;;19.33;30.81;101651.00;5029659;28;20198;-67
2023/04/26 08:49:47;;;;;;;5.67;3.00;;;14.60;46.20;;;19.12;30.87;101651.25;5031119;28;20206;-59
2023/04/26 08:52:16;;;;;;;3.17;2.00;;;14.80;45.10;;;18.81;30.71;101647.41;5035524;28;20252;-60
2023/04/26 08:54:45;;;;;;;5.57;2.53;;;14.90;44.30;;;18.47;31.48;101650.25;5026667;28;20219;-62
2023/04/26 08:57:14;;;;;;;4.53;2.40;;;14.80;44.60;;;18.15;31.92;101645.66;5030295;28;20256;-61
2023/04/26 08:59:45;;;;;;;5.30;2.10;;;14.70;44.70;;;17.85;32.36;101644.34;5047657;28;20217;-62
2023/04/26 09:02:18;;;;;;;4.77;2.30;;;14.60;45.00;;;17.59;32.49;101645.88;5031334;28;20263;-62
2023/04/26 09:04:47;;;;;;;4.33;2.70;;;14.40;45.20;;;17.37;32.69;101646.97;5023897;28;20229;-63
2023/04/26 09:07:20;;;;;;;4.93;2.30;;;14.20;45.40;;;17.16;33.22;101644.41;5031485;28;20199;-60
2023/04/26 09:09:50;;;;;;;5.33;2.50;;;14.10;45.70;;;17.03;33.47;101643.47;5028554;28;20194;-62
2023/04/26 09:12:21;;;;;;;4.63;3.37;;;13.90;46.20;;;16.89;33.63;101645.22;5027637;28;20214;-59
2023/04/26 09:14:48;;;;;;;6.30;2.97;;;13.80;46.40;;;16.83;33.64;101653.94;5029888;28;20276;-61
2023/04/26 09:17:27;;;;;;;3.40;2.93;;;13.60;46.30;;;17.42;33.40;101647.19;5022778;28;20579;-60
2023/04/26 09:19:55;;;;;;;6.47;3.53;;;13.60;46.90;;;18.11;32.71;101655.09;5027750;28;20186;-61
2023/04/26 09:22:30;;;;;;;4.90;2.40;;;13.80;47.60;;;18.44;32.26;101661.31;5043567;28;20206;-61
2023/04/26 09:24:58;;;;;;;3.70;2.30;;;14.10;46.90;;;18.38;31.39;101650.63;5020528;28;20222;-63
2023/04/26 09:27:35;;;;;;;7.67;2.50;;;14.30;45.70;;;18.04;31.46;101664.91;5030942;28;20198;-62
2023/04/26 09:30:06;;;;;;;5.43;2.47;;;14.30;44.60;;;17.67;31.86;101665.38;5027830;28;22048;-62
2023/04/26 09:32:48;;;;;;;3.40;2.37;;;14.30;44.60;;;17.23;32.76;101663.06;5027635;28;20210;-61
2023/04/26 09:35:31;;;;;;;4.17;2.73;;;14.10;45.10;;;16.87;33.38;101671.19;5028840;28;20214;-62
2023/04/26 09:38:01;;;;;;;9.50;4.50;;;13.90;45.90;;;16.66;34.09;101673.88;5027737;28;20612;-64
2023/04/26 09:40:40;;;;;;;5.60;2.80;;;13.60;46.40;;;16.51;34.35;101679.25;5029271;28;20206;-62
2023/04/26 09:43:10;;;;;;;8.67;2.10;;;13.40;47.40;;;16.40;34.34;101669.13;5041405;28;20224;-61
2023/04/26 09:45:48;;;;;;;4.23;2.23;;;13.20;47.80;;;16.20;34.54;101671.56;5031900;28;20280;-61
2023/04/26 09:48:24;;;;;;;3.97;1.80;;;13.10;47.70;;;16.04;34.85;101668.31;5032500;28;20264;-63
2023/04/26 09:50:53;;;;;;;4.10;2.37;;;12.90;48.40;;;15.95;35.17;101683.50;5027079;28;20191;-64
2023/04/26 09:53:29;;;;;;;3.60;1.93;;;12.80;47.80;;;15.83;34.78;101677.03;5013751;28;20596;-63
2023/04/26 09:56:08;;;;;;;6.60;2.40;;;12.60;47.80;;;15.76;35.00;101681.44;5020780;28;20241;-62
2023/04/26 09:58:38;;;;;;;5.87;2.57;;;12.60;48.10;;;15.72;34.92;101685.47;5032056;28;20598;-59
2023/04/26 10:01:06;;;;;;;3.47;2.00;;;12.60;48.10;;;15.74;35.18;101693.25;5031628;28;20269;-60
2023/04/26 10:03:36;;;;;;;5.00;2.23;;;12.60;48.50;;;15.71;35.25;101697.13;5030461;28;20269;-62
2023/04/26 10:06:05;;;;;;;6.43;1.90;;;12.50;48.70;;;15.66;35.58;101696.00;5031842;28;20238;-63
2023/04/26 10:08:33;;;;;;;7.07;4.63;;;12.50;49.10;;;15.57;35.77;101684.66;5044783;28;20191;-61
2023/04/26 10:11:03;;;;;;;6.33;4.90;;;12.50;49.60;;;15.52;36.33;101690.50;5027252;28;20194;-61
2023/04/26 10:13:31;;;;;;;2.83;2.13;;;12.40;50.10;;;15.53;36.32;101684.22;5032901;28;20202;-62
2023/04/26 10:16:00;;;;;;;5.63;2.47;;;12.40;50.50;;;15.52;36.33;101684.41;5030193;28;20261;-62
2023/04/26 10:18:27;;;;;;;6.03;2.57;;;12.40;50.70;;;15.58;36.85;101689.78;5030002;28;20225;-57
2023/04/26 10:21:03;;;;;;;2.43;1.67;;;12.30;51.00;;;15.81;36.49;101683.56;5030517;28;20792;-63
2023/04/26 10:23:32;;;;;;;3.70;2.10;;;12.40;51.40;;;16.06;36.27;101688.34;5028186;28;20206;-63